Axtell, TX (76624)

2:54 PM CDT on September 30, 2014 (GMT -0500)
Tstc Waco | Change Station
CLOSE
Current Station
Airport
Location: TSTC Waco Airport,
Elevation: 469 ft
Nearby Weather Stations

Elev 469 ft 31.65 °N, 97.07 °W | Updated 1 hour ago

Partly Cloudy
Partly Cloudy
90 °F
Feels Like 92 °F
N
7
Wind Variable Wind from South

Today
High -- | Low -- °F
--% Chance of Precip.
Yesterday
High -- | Low -- °F
Precip. -- in
7:21 AM 7:14 PM
Waxing Crescent, 39% visible
Pressure 29.83 in
Visibility 10.0 miles
Clouds Scattered Clouds 4300 ft
Heat Index 92 °F
Dew Point 66 °F
Humidity 46%
Rainfall 0.00 in
Snow Depth Not available.
UV 7 out of 12
Pollen 9.00 out of 12
Ozone Good
PM2.5 Good
Flu Activity Not available.
METAR KCNW 301853Z 18006KT 10SM SCT043 32/19 A2983

More Conditions Fewer Conditions

Pressure 29.83 in
Visibility 10.0 miles
Clouds Scattered Clouds 4300 ft
Heat Index 92 °F
Dew Point 66 °F
Humidity 46%
Rainfall 0.00 in
Snow Depth Not available.
UV 7 out of 12
Pollen 9.00 out of 12
Ozone Good
PM2.5 Good
Flu Activity Not available.
METAR KCNW 301853Z 18006KT 10SM SCT043 32/19 A2983

More Conditions Fewer Conditions

Nowcast | as of 12:50 PM CDT on September 30, 2014

Isolated showers will affect areas east of the I-35 corridor this afternoon. Most rainfall will be less than one tenth of an inch... but a strong shower might produce between one quarter and one third of inch. Otherwise...this afternoon will be warm with south to southeast winds around 10 mph. Skies will vary from mostly sunny out west to mostly cloudy along and east of I-35.

×

10-Day Weather Forecast

Almanac

Astronomy

Sep. 30, 2014 Rise Set
Actual Time 7:21 AM CDT 7:14 PM CDT
Civil Twilight 6:56 AM CDT 7:38 PM CDT
Nautical Twilight 6:28 AM CDT 8:06 PM CDT
Astronomical Twilight 6:00 AM CDT 8:34 PM CDT
Moon 1:14 PM CDT No Moon Set
Length of Visible Light 12h 41m
Length of Day
11h 52m
Tomorrow will be 1m 55s shorter.
Waxing Crescent, 39% of the Moon is Illuminated
Today
Waxing Crescent
Oct 1
First Quarter
Oct 8
Full
Oct 15
Last Quarter
Oct 23
New

Today's Extremes

State Highs State Lows

Community

WunderPhotos

Upload Photos

1,757,731 photos uploaded!

Nearby

Air Quality

  Air Quality AQ Index Pollutant
Yesterday Moderate
PM2.5
Yesterday Good
OZONE
Current Good
PM2.5
Current Good
OZONE
Tuesday Moderate
OZONE
Tuesday Good
PM10
Wednesday Good
PM10
Wednesday Good
OZONE
Thursday Good
PM10
Thursday Good
OZONE
Friday Good
PM10
Friday Good
OZONE

Snow Depth

Station Depth Elevation
No new snow has been reported.

Earthquake Activity

City Distance Mag. Time & Date
No recent earthquake activity has been reported nearby.
Minimum magnitude displayed is 2.5.

Coastal Water Temperatures

Place Temperature
No Stations Reporting

Nearby Weather Stations